Terminal Aerodrome Forecast
Issued by NWS Grand Forks, ND

Home | Current Version | Previous Version | Graphics & Text | Print | Product List | Glossary Off
Versions: 1 2 3 4 5 6 7 8 9 10 11 12 13 14 15 16 17 18

000
FTUS43 KFGF 290500
TAFFAR
TAF
KFAR 290520Z 2906/3006 17024G34KT P6SM -SHRA BKN050
     FM291100 32023G33KT P6SM -SHRA BKN050
     FM291300 33026G36KT P6SM BKN025
     FM291600 33030G40KT P6SM SCT035
     FM292000 33022G30KT P6SM SKC=

USA.gov is the U.S. government's official web portal to all federal, state and local government web resources and services.